Time;durP1;ratioP1;P1;durP2;ratioP2;P2;SDS_P1;SDS_P2;PMS_P1;PMS_P2;Temp;Humidity;BMP_temperature;BMP_pressure;BME280_temperature;BME280_humidity;BME280_pressure;Samples;Min_cycle;Max_cycle;Signal;HPM_P1;HPM_P2
2021/06/10 00:02:12;;;;;;;;;;;;;;;22.90;53.37;99366.09;5093719;28;20291;-38
2021/06/10 00:04:38;;;;;;;;;;;;;;;22.58;53.91;99365.75;5107267;28;20395;-37
2021/06/10 00:07:03;;;;;;;;;;;;;;;22.53;54.35;99370.41;5100794;28;19942;-38
2021/06/10 00:09:28;;;;;;;;;;;;;;;22.78;53.63;99364.63;5111646;28;19919;-38
2021/06/10 00:11:54;;;;;;;;;;;;;;;22.91;53.37;99368.50;5096437;28;20339;-37
2021/06/10 00:14:19;;;;;;;;;;;;;;;22.76;53.58;99363.31;5104858;28;19920;-38
2021/06/10 00:16:44;;;;;;;;;;;;;;;22.37;54.83;99356.25;5105771;28;20288;-38
2021/06/10 00:19:12;;;;;;;;;;;;;;;21.76;56.42;99355.84;5091974;28;20010;-37
2021/06/10 00:21:38;;;;;;;;;;;;;;;21.87;56.30;99361.94;5100633;28;19916;-39
2021/06/10 00:24:03;;;;;;;;;;;;;;;22.16;55.96;99359.19;5108694;28;19912;-39
2021/06/10 00:26:28;;;;;;;;;;;;;;;22.30;55.13;99353.91;5112136;28;20291;-37
2021/06/10 00:28:54;;;;;;;;;;;;;;;22.56;54.39;99345.41;5104652;28;20317;-37
2021/06/10 00:31:19;;;;;;;;;;;;;;;22.48;54.52;99333.31;5102335;28;19912;-38
2021/06/10 00:33:44;;;;;;;;;;;;;;;22.34;54.35;99332.44;5111408;28;20367;-39
2021/06/10 00:36:09;;;;;;;;;;;;;;;22.38;54.09;99319.91;5110411;28;19916;-38
2021/06/10 00:38:35;;;;;;;;;;;;;;;22.44;54.22;99322.25;5096193;28;19934;-38
2021/06/10 00:41:00;;;;;;;;;;;;;;;22.38;53.85;99322.63;5103523;28;19947;-37
2021/06/10 00:43:25;;;;;;;;;;;;;;;22.29;54.47;99316.25;5091421;28;19984;-38
2021/06/10 00:45:51;;;;;;;;;;;;;;;22.19;54.19;99315.25;5091403;28;20007;-38
2021/06/10 00:48:16;;;;;;;;;;;;;;;22.19;53.47;99315.25;5107766;28;19978;-37
2021/06/10 00:50:43;;;;;;;;;;;;;;;22.29;53.32;99317.03;5090976;28;19913;-36
2021/06/10 00:53:08;;;;;;;;;;;;;;;22.12;53.86;99317.50;5100310;28;19988;-37
2021/06/10 00:55:34;;;;;;;;;;;;;;;21.69;54.08;99320.19;5098054;28;20018;-38
2021/06/10 00:57:59;;;;;;;;;;;;;;;21.12;55.28;99319.09;5107714;28;19912;-37
2021/06/10 01:00:24;;;;;;;;;;;;;;;21.15;56.05;99318.50;5094491;27;20002;-37
2021/06/10 01:02:50;;;;;;;;;;;;;;;21.34;55.41;99324.81;5104313;28;19916;-37
2021/06/10 01:05:15;;;;;;;;;;;;;;;21.36;55.69;99327.22;5090953;28;19919;-38
2021/06/10 01:07:47;;;;;;;;;;;;;;;21.52;55.05;99330.66;5091098;28;19935;-38
2021/06/10 01:10:33;;;;;;;;;;;;;;;21.78;54.72;99323.88;5091545;28;19938;-38
2021/06/10 01:13:02;;;;;;;;;;;;;;;21.93;54.45;99327.50;5103891;28;19916;-38
2021/06/10 01:15:28;;;;;;;;;;;;;;;22.11;54.12;99318.63;5093028;28;19920;-38
2021/06/10 01:17:53;;;;;;;;;;;;;;;22.26;53.71;99323.06;5090955;28;19943;-38
2021/06/10 01:20:26;;;;;;;;;;;;;;;22.16;53.31;99329.41;5108736;28;20299;-37
2021/06/10 01:22:51;;;;;;;;;;;;;;;22.30;53.01;99320.59;5102731;28;19911;-37
2021/06/10 01:25:37;;;;;;;;;;;;;;;22.16;53.75;99317.72;5099972;28;19932;-37
2021/06/10 01:28:02;;;;;;;;;;;;;;;22.33;53.25;99315.38;5106916;28;19912;-38
2021/06/10 01:30:29;;;;;;;;;;;;;;;22.43;53.22;99306.31;5094085;28;19946;-37
2021/06/10 01:32:58;;;;;;;;;;;;;;;22.14;54.43;99309.91;5102962;28;20264;-38
2021/06/10 01:35:24;;;;;;;;;;;;;;;22.25;53.68;99308.69;5102064;28;20368;-37
2021/06/10 01:37:49;;;;;;;;;;;;;;;22.06;53.93;99308.63;5094784;28;19919;-37
2021/06/10 01:40:15;;;;;;;;;;;;;;;22.05;54.40;99311.66;5091051;28;20296;-38
2021/06/10 01:42:40;;;;;;;;;;;;;;;21.75;54.17;99302.78;5094720;28;19985;-37
2021/06/10 01:45:06;;;;;;;;;;;;;;;21.20;55.58;99304.94;5100225;28;19919;-38
2021/06/10 01:47:32;;;;;;;;;;;;;;;21.03;56.23;99305.34;5089833;28;20376;-38
2021/06/10 01:49:57;;;;;;;;;;;;;;;20.97;56.43;99304.56;5089081;28;19950;-38
2021/06/10 01:52:22;;;;;;;;;;;;;;;21.13;55.87;99307.94;5105836;28;19913;-36
2021/06/10 01:54:48;;;;;;;;;;;;;;;21.16;56.16;99306.59;5095598;28;19919;-36
2021/06/10 01:57:13;;;;;;;;;;;;;;;21.20;55.87;99313.84;5109277;28;20025;-38
2021/06/10 01:59:38;;;;;;;;;;;;;;;21.45;55.41;99314.72;5096836;28;20344;-37
2021/06/10 02:02:04;;;;;;;;;;;;;;;21.53;55.43;99318.72;5107033;28;19912;-37
2021/06/10 02:04:29;;;;;;;;;;;;;;;21.51;55.46;99318.19;5092854;28;19950;-37
2021/06/10 02:06:54;;;;;;;;;;;;;;;21.14;55.36;99317.69;5101624;28;20357;-37
2021/06/10 02:09:20;;;;;;;;;;;;;;;21.28;55.94;99317.84;5101326;28;19922;-37
2021/06/10 02:11:47;;;;;;;;;;;;;;;21.47;55.27;99307.94;5095920;28;19912;-49
2021/06/10 02:14:13;;;;;;;;;;;;;;;21.57;55.36;99303.50;5102445;28;19939;-52
2021/06/10 02:16:39;;;;;;;;;;;;;;;21.79;54.28;99305.72;5103695;28;20590;-49
2021/06/10 02:19:04;;;;;;;;;;;;;;;21.93;53.99;99308.53;5098986;28;19988;-51
2021/06/10 02:21:31;;;;;;;;;;;;;;;21.89;54.06;99307.50;5101287;28;20423;-52
2021/06/10 02:23:56;;;;;;;;;;;;;;;21.85;54.33;99309.97;5109027;28;19912;-50
2021/06/10 02:26:21;;;;;;;;;;;;;;;21.76;54.51;99301.69;5093708;28;19912;-50
2021/06/10 02:28:46;;;;;;;;;;;;;;;21.60;54.69;99301.03;5104266;28;19989;-48
2021/06/10 02:31:12;;;;;;;;;;;;;;;21.65;55.20;99292.06;5100031;28;19934;-49
2021/06/10 02:33:38;;;;;;;;;;;;;;;21.29;55.52;99297.81;5096813;28;19916;-48
2021/06/10 02:36:07;;;;;;;;;;;;;;;21.16;55.88;99310.09;5110279;28;19958;-51
2021/06/10 02:38:32;;;;;;;;;;;;;;;21.23;55.45;99309.78;5098106;28;19916;-50
2021/06/10 02:40:59;;;;;;;;;;;;;;;21.24;55.60;99311.38;5104719;28;20360;-51
2021/06/10 02:43:24;;;;;;;;;;;;;;;21.42;54.96;99318.78;5105321;28;19915;-50
2021/06/10 02:45:49;;;;;;;;;;;;;;;21.37;55.54;99318.03;5098401;28;19919;-49
2021/06/10 02:48:14;;;;;;;;;;;;;;;21.16;56.71;99318.22;5110188;28;19918;-49
2021/06/10 02:50:40;;;;;;;;;;;;;;;21.21;58.79;99320.88;5097312;28;19912;-50
2021/06/10 02:53:06;;;;;;;;;;;;;;;21.05;57.25;99313.97;5104739;28;20340;-51
2021/06/10 02:55:31;;;;;;;;;;;;;;;21.49;56.41;99315.78;5105872;28;19997;-47
2021/06/10 02:57:57;;;;;;;;;;;;;;;21.81;54.64;99311.66;5095610;28;19954;-51
2021/06/10 03:00:23;;;;;;;;;;;;;;;21.63;54.18;99316.72;5108685;28;20022;-52
2021/06/10 03:02:49;;;;;;;;;;;;;;;21.74;54.70;99324.72;5099748;28;20291;-51
2021/06/10 03:05:14;;;;;;;;;;;;;;;21.85;54.43;99334.34;5102838;28;19919;-51
2021/06/10 03:07:39;;;;;;;;;;;;;;;21.84;53.89;99328.13;5105070;28;19961;-48
2021/06/10 03:10:08;;;;;;;;;;;;;;;21.59;55.29;99334.63;5095804;28;19919;-38
2021/06/10 03:12:34;;;;;;;;;;;;;;;21.71;54.53;99328.81;5095514;28;20338;-38
2021/06/10 03:15:00;;;;;;;;;;;;;;;21.74;56.06;99327.44;5082455;28;19927;-38
2021/06/10 03:17:25;;;;;;;;;;;;;;;22.00;53.99;99339.59;5098898;28;20390;-38
2021/06/10 03:19:50;;;;;;;;;;;;;;;22.15;53.36;99338.59;5090708;28;19912;-38
2021/06/10 03:22:16;;;;;;;;;;;;;;;21.97;53.75;99342.91;5100297;28;20360;-38
2021/06/10 03:24:41;;;;;;;;;;;;;;;21.79;53.99;99336.31;5110871;28;19912;-36
2021/06/10 03:27:06;;;;;;;;;;;;;;;21.60;54.92;99338.13;5101429;28;19927;-37
2021/06/10 03:29:32;;;;;;;;;;;;;;;21.78;55.38;99348.25;5104038;28;19999;-37
2021/06/10 03:31:57;;;;;;;;;;;;;;;;;;5095030;28;19923;-38
2021/06/10 03:34:22;;;;;;;;;;;;;;;21.56;55.41;99343.31;5090502;28;20027;-38
2021/06/10 03:36:48;;;;;;;;;;;;;;;22.16;53.47;99345.66;5090762;28;19927;-38
2021/06/10 03:39:13;;;;;;;;;;;;;;;22.27;52.91;99338.22;5100915;28;19923;-37
2021/06/10 03:41:39;;;;;;;;;;;;;;;22.88;52.24;99346.59;5111157;28;19926;-38
2021/06/10 03:44:04;;;;;;;;;;;;;;;22.57;52.46;99342.41;5094877;28;19991;-38
2021/06/10 03:46:30;;;;;;;;;;;;;;;22.92;52.28;99345.69;5105934;28;19912;-39
2021/06/10 03:48:55;;;;;;;;;;;;;;;23.41;50.77;99340.88;5098202;28;20360;-38
2021/06/10 03:51:20;;;;;;;;;;;;;;;23.70;50.59;99340.59;5100876;28;19916;-37
2021/06/10 03:53:46;;;;;;;;;;;;;;;24.20;48.43;99338.03;5106568;28;20290;-37
2021/06/10 03:56:11;;;;;;;;;;;;;;;24.10;48.16;99330.06;5110194;28;20450;-37
2021/06/10 03:58:37;;;;;;;;;;;;;;;23.79;48.72;99336.13;5096786;28;19912;-38
2021/06/10 04:01:02;;;;;;;;;;;;;;;23.75;49.27;99337.81;5103202;28;19942;-39
2021/06/10 04:03:27;;;;;;;;;;;;;;;24.06;48.08;99341.88;5103617;28;19923;-37
2021/06/10 04:05:53;;;;;;;;;;;;;;;24.52;47.12;99332.75;5095095;28;19993;-38
2021/06/10 04:08:18;;;;;;;;;;;;;;;24.54;47.05;99330.53;5108372;28;19947;-38
2021/06/10 04:10:43;;;;;;;;;;;;;;;24.30;46.89;99325.34;5097468;28;20019;-37
2021/06/10 04:13:09;;;;;;;;;;;;;;;24.72;46.58;99323.34;5102001;28;19912;-38
2021/06/10 04:15:34;;;;;;;;;;;;;;;24.64;46.75;99315.94;5091173;28;19981;-39
2021/06/10 04:17:59;;;;;;;;;;;;;;;25.34;45.23;99320.75;5106763;28;20053;-37
2021/06/10 04:20:24;;;;;;;;;;;;;;;25.91;44.58;99314.63;5094791;28;20378;-38
2021/06/10 04:22:50;;;;;;;;;;;;;;;26.13;43.89;99321.09;5111394;28;20367;-38
2021/06/10 04:25:15;;;;;;;;;;;;;;;26.12;43.65;99324.94;5110847;28;19967;-38
2021/06/10 04:27:40;;;;;;;;;;;;;;;26.75;42.55;99324.72;5097359;28;19934;-38
2021/06/10 04:30:07;;;;;;;;;;;;;;;27.28;41.41;99323.53;5091249;28;19912;-38
2021/06/10 04:32:32;;;;;;;;;;;;;;;27.44;40.72;99326.56;5106707;28;19912;-39
2021/06/10 04:34:57;;;;;;;;;;;;;;;27.53;40.83;99321.06;5098263;28;19923;-37
2021/06/10 04:37:23;;;;;;;;;;;;;;;27.63;40.44;99326.97;5099193;28;20441;-37
2021/06/10 04:39:48;;;;;;;;;;;;;;;28.36;39.33;99328.72;5090246;28;19912;-39
2021/06/10 04:42:13;;;;;;;;;;;;;;;28.40;38.75;99324.16;5106910;28;19915;-37
2021/06/10 04:44:39;;;;;;;;;;;;;;;28.73;38.63;99318.00;5095876;28;19943;-38
2021/06/10 04:47:05;;;;;;;;;;;;;;;29.18;37.83;99321.94;5101618;28;19919;-38
2021/06/10 04:49:34;;;;;;;;;;;;;;;29.67;36.81;99327.53;5102706;28;20367;-38
2021/06/10 04:51:59;;;;;;;;;;;;;;;29.97;36.16;99328.13;5110275;28;19939;-37
2021/06/10 04:54:24;;;;;;;;;;;;;;;30.32;35.42;99321.38;5110458;28;19919;-39
2021/06/10 04:56:49;;;;;;;;;;;;;;;30.70;35.01;99325.63;5102545;28;19919;-38
2021/06/10 04:59:15;;;;;;;;;;;;;;;30.80;34.10;99328.66;5099504;28;19912;-38
2021/06/10 05:01:40;;;;;;;;;;;;;;;30.85;34.29;99324.88;5095783;28;19934;-37
2021/06/10 05:04:06;;;;;;;;;;;;;;;31.35;33.44;99330.94;5106864;28;19911;-38
2021/06/10 05:06:31;;;;;;;;;;;;;;;31.47;33.36;99328.16;5092927;28;19960;-37
2021/06/10 05:08:56;;;;;;;;;;;;;;;31.33;34.22;99334.03;5102939;28;20400;-38
2021/06/10 05:11:22;;;;;;;;;;;;;;;31.69;33.33;99328.69;5097104;28;20412;-38
2021/06/10 05:13:47;;;;;;;;;;;;;;;32.03;32.50;99332.69;5081868;28;19916;-38
2021/06/10 05:16:12;;;;;;;;;;;;;;;32.41;31.64;99319.38;5075435;28;20276;-37
2021/06/10 05:18:37;;;;;;;;;;;;;;;32.65;31.98;99330.16;5120356;27;19934;-38
2021/06/10 05:21:03;;;;;;;;;;;;;;;32.79;31.17;99329.63;5073154;28;19927;-38
2021/06/10 05:23:28;;;;;;;;;;;;;;;32.98;30.51;99328.81;5110122;28;20061;-37
2021/06/10 05:25:53;;;;;;;;;;;;;;;32.33;31.34;99330.22;5094635;28;19922;-38
2021/06/10 05:28:19;;;;;;;;;;;;;;;32.69;31.65;99325.50;5090049;28;20024;-38
2021/06/10 05:30:44;;;;;;;;;;;;;;;33.25;30.33;99326.97;5095515;28;19938;-39
2021/06/10 05:33:09;;;;;;;;;;;;;;;33.42;30.09;99324.91;5109973;28;19912;-38
2021/06/10 05:35:35;;;;;;;;;;;;;;;33.78;29.57;99317.25;5096293;28;20299;-38
2021/06/10 05:38:00;;;;;;;;;;;;;;;32.98;30.38;99315.03;5106204;28;20016;-39
2021/06/10 05:40:25;;;;;;;;;;;;;;;33.39;30.75;99320.91;5076593;28;19919;-37
2021/06/10 05:42:51;;;;;;;;;;;;;;;33.81;29.61;99313.75;5108515;28;19912;-38
2021/06/10 05:45:16;;;;;;;;;;;;;;;33.88;29.29;99319.38;5099295;28;19912;-38
2021/06/10 05:47:41;;;;;;;;;;;;;;;33.77;29.40;99313.69;5103864;28;19976;-38
2021/06/10 05:50:07;;;;;;;;;;;;;;;34.03;28.96;99315.66;5093023;28;19923;-38
2021/06/10 05:52:32;;;;;;;;;;;;;;;33.97;29.37;99322.69;5105670;28;19912;-38
2021/06/10 05:54:58;;;;;;;;;;;;;;;34.17;29.45;99323.38;5097504;28;19923;-38
2021/06/10 05:57:24;;;;;;;;;;;;;;;34.68;28.28;99329.59;5098185;28;19916;-37
2021/06/10 05:59:49;;;;;;;;;;;;;;;34.42;28.56;99326.50;5105076;28;19952;-38
2021/06/10 06:02:15;;;;;;;;;;;;;;;34.97;27.87;99331.50;5093089;28;20364;-38
2021/06/10 06:04:41;;;;;;;;;;;;;;;34.36;28.35;99333.50;5104169;28;20371;-38
2021/06/10 06:07:06;;;;;;;;;;;;;;;34.97;27.80;99331.50;5099190;28;20007;-37
2021/06/10 06:09:31;;;;;;;;;;;;;;;35.26;28.11;99329.06;5111341;28;19911;-38
2021/06/10 06:11:57;;;;;;;;;;;;;;;35.53;27.81;99326.16;5097686;28;20005;-37
2021/06/10 06:14:32;;;;;;;;;;;;;;;35.82;27.03;99330.78;5097122;28;20380;-38
2021/06/10 06:17:06;;;;;;;;;;;;;;;35.92;26.31;99328.47;5105771;28;19977;-39
2021/06/10 06:19:35;;;;;;;;;;;;;;;35.12;27.86;99313.09;5105878;28;19938;-39
2021/06/10 06:22:01;;;;;;;;;;;;;;;35.01;27.71;99326.84;5096654;28;19912;-38
2021/06/10 06:24:28;;;;;;;;;;;;;;;35.17;27.49;99323.03;5097266;28;19912;-37
2021/06/10 06:26:53;;;;;;;;;;;;;;;35.93;26.93;99327.28;5106442;28;19924;-38
2021/06/10 06:29:18;;;;;;;;;;;;;;;35.17;27.32;99331.34;5104633;28;20061;-38
2021/06/10 06:31:44;;;;;;;;;;;;;;;34.70;27.64;99338.31;5099210;28;20249;-37
2021/06/10 06:34:09;;;;;;;;;;;;;;;35.01;27.71;99337.06;5110182;28;20381;-39
2021/06/10 06:36:34;;;;;;;;;;;;;;;35.27;26.95;99336.19;5097858;28;19915;-37
2021/06/10 06:39:00;;;;;;;;;;;;;;;35.12;26.96;99343.50;5105131;28;20323;-37
2021/06/10 06:41:25;;;;;;;;;;;;;;;35.01;27.11;99340.66;5104918;28;19961;-37
2021/06/10 06:43:50;;;;;;;;;;;;;;;34.24;27.99;99344.78;5098098;28;19912;-37
2021/06/10 06:46:16;;;;;;;;;;;;;;;34.18;27.97;99341.53;5109274;28;19912;-37
2021/06/10 06:48:41;;;;;;;;;;;;;;;34.43;27.88;99341.09;5098587;28;19919;-38
2021/06/10 06:51:06;;;;;;;;;;;;;;;34.44;28.14;99335.22;5102227;28;20267;-37
2021/06/10 06:53:32;;;;;;;;;;;;;;;34.92;27.19;99345.69;5104360;28;19911;-39
2021/06/10 06:55:57;;;;;;;;;;;;;;;35.03;27.32;99343.84;5096386;28;19923;-37
2021/06/10 06:58:23;;;;;;;;;;;;;;;34.43;27.81;99343.84;5109324;28;19912;-38
2021/06/10 07:00:48;;;;;;;;;;;;;;;35.12;27.06;99342.72;5099390;28;19916;-39
2021/06/10 07:03:13;;;;;;;;;;;;;;;34.93;27.52;99336.19;5113128;28;19938;-39
2021/06/10 07:05:38;;;;;;;;;;;;;;;35.59;27.02;99344.00;5098610;28;19912;-39
2021/06/10 07:08:04;;;;;;;;;;;;;;;35.53;26.72;99342.75;5109121;28;19911;-39
2021/06/10 07:10:29;;;;;;;;;;;;;;;35.46;26.66;99346.25;5092767;28;19912;-39
2021/06/10 07:12:54;;;;;;;;;;;;;;;36.13;26.10;99353.50;5100179;28;19934;-38
2021/06/10 07:15:20;;;;;;;;;;;;;;;36.35;25.70;99348.16;5101731;28;19956;-38
2021/06/10 07:17:45;;;;;;;;;;;;;;;36.72;24.83;99347.94;5105207;28;20024;-38
2021/06/10 07:20:12;;;;;;;;;;;;;;;36.82;25.05;99357.47;5095295;28;19960;-39
2021/06/10 07:22:38;;;;;;;;;;;;;;;35.89;25.77;99359.66;5104026;28;20313;-39
2021/06/10 07:25:04;;;;;;;;;;;;;;;36.51;24.96;99356.94;5103748;28;19927;-39
2021/06/10 07:27:29;;;;;;;;;;;;;;;36.45;25.19;99357.69;5104140;28;19973;-39
2021/06/10 07:29:56;;;;;;;;;;;;;;;36.85;25.23;99359.47;5096492;28;20063;-38
2021/06/10 07:32:22;;;;;;;;;;;;;;;36.76;25.13;99362.59;5095212;28;19915;-38
2021/06/10 07:34:47;;;;;;;;;;;;;;;37.16;24.72;99354.44;5104261;28;20353;-39
2021/06/10 07:37:12;;;;;;;;;;;;;;;37.20;24.97;99355.22;5091842;28;19916;-39
2021/06/10 07:39:39;;;;;;;;;;;;;;;37.41;24.41;99356.47;5105855;28;19915;-38
2021/06/10 07:42:04;;;;;;;;;;;;;;;37.62;23.88;99356.50;5095609;28;20338;-39
2021/06/10 07:44:29;;;;;;;;;;;;;;;37.42;24.41;99355.28;5107992;28;19918;-39
2021/06/10 07:46:55;;;;;;;;;;;;;;;37.19;25.02;99350.88;5091881;28;20015;-38
2021/06/10 07:49:20;;;;;;;;;;;;;;;37.26;24.70;99348.13;5103124;28;19911;-38
2021/06/10 07:51:45;;;;;;;;;;;;;;;37.72;24.28;99347.41;5112107;28;19912;-38
2021/06/10 07:54:11;;;;;;;;;;;;;;;37.66;24.17;99351.75;5110277;28;20026;-39
2021/06/10 07:56:36;;;;;;;;;;;;;;;37.36;24.81;99354.88;5096120;28;20068;-37
2021/06/10 07:59:02;;;;;;;;;;;;;;;37.82;24.45;99356.91;5102957;28;20311;-40
2021/06/10 08:01:27;;;;;;;;;;;;;;;37.67;23.91;99352.53;5103981;28;19994;-38
2021/06/10 08:03:52;;;;;;;;;;;;;;;37.13;23.99;99356.03;5096443;28;20020;-38
2021/06/10 08:06:18;;;;;;;;;;;;;;;36.42;24.07;99361.22;5108259;28;19951;-38
2021/06/10 08:08:43;;;;;;;;;;;;;;;35.60;26.51;99362.19;5097707;28;19916;-37
2021/06/10 08:11:10;;;;;;;;;;;;;;;36.00;25.91;99363.31;5100674;28;20364;-37
2021/06/10 08:13:35;;;;;;;;;;;;;;;35.32;25.62;99359.94;5105109;28;19912;-37
2021/06/10 08:16:01;;;;;;;;;;;;;;;35.48;24.98;99359.72;5094647;28;19927;-38
2021/06/10 08:18:28;;;;;;;;;;;;;;;35.85;25.45;99361.63;5107818;28;20013;-38
2021/06/10 08:20:54;;;;;;;;;;;;;;;36.31;25.24;99350.91;5098971;28;19912;-39
2021/06/10 08:23:19;;;;;;;;;;;;;;;37.01;23.54;99355.56;5104147;28;19931;-38
2021/06/10 08:25:44;;;;;;;;;;;;;;;35.91;24.95;99355.34;5096710;28;19912;-38
2021/06/10 08:28:10;;;;;;;;;;;;;;;35.32;25.52;99352.44;5106799;28;19992;-38
2021/06/10 08:30:35;;;;;;;;;;;;;;;35.09;25.46;99351.78;5096191;28;19996;-38
2021/06/10 08:33:00;;;;;;;;;;;;;;;34.05;27.53;99349.22;5102584;28;19920;-39
2021/06/10 08:35:26;;;;;;;;;;;;;;;34.83;26.68;99351.50;5102980;28;19922;-39
2021/06/10 08:37:51;;;;;;;;;;;;;;;34.12;27.61;99343.00;5095439;28;19912;-38
2021/06/10 08:40:16;;;;;;;;;;;;;;;35.18;26.30;99350.31;5107586;28;19937;-38
2021/06/10 08:42:42;;;;;;;;;;;;;;;35.60;25.83;99342.81;5089539;28;20352;-38
2021/06/10 08:45:11;;;;;;;;;;;;;;;35.93;25.01;99352.19;5098966;28;19912;-38
2021/06/10 08:47:37;;;;;;;;;;;;;;;36.65;24.61;99353.44;5097653;28;19912;-38
2021/06/10 08:50:03;;;;;;;;;;;;;;;34.02;26.43;99349.16;5107925;28;20382;-38
2021/06/10 08:52:29;;;;;;;;;;;;;;;33.54;27.25;99355.06;5095009;28;19927;-37
2021/06/10 08:54:54;;;;;;;;;;;;;;;34.01;26.55;99347.56;5103317;28;20013;-37
2021/06/10 08:57:19;;;;;;;;;;;;;;;34.99;25.41;99347.72;5101675;28;20108;-38
2021/06/10 08:59:45;;;;;;;;;;;;;;;34.48;26.59;99351.78;5094540;28;19912;-38
2021/06/10 09:02:10;;;;;;;;;;;;;;;34.73;26.02;99346.66;5107377;28;19947;-39
2021/06/10 09:04:35;;;;;;;;;;;;;;;35.44;25.10;99349.41;5089894;28;20340;-38
2021/06/10 09:07:03;;;;;;;;;;;;;;;35.33;25.11;99344.94;5099207;28;19960;-38
2021/06/10 09:09:33;;;;;;;;;;;;;;;35.33;25.49;99347.72;5098036;28;19922;-39
2021/06/10 09:12:04;;;;;;;;;;;;;;;36.01;24.67;99351.84;5107328;28;20010;-38
2021/06/10 09:14:29;;;;;;;;;;;;;;;36.15;24.25;99334.53;5078414;28;19938;-38
2021/06/10 09:16:55;;;;;;;;;;;;;;;34.32;25.24;99326.34;5102443;28;20435;-39
2021/06/10 09:19:20;;;;;;;;;;;;;;;34.49;26.00;99331.31;5101464;28;19969;-39
2021/06/10 09:21:45;;;;;;;;;;;;;;;35.12;24.80;99321.41;5093886;28;19912;-39
2021/06/10 09:24:20;;;;;;;;;;;;;;;35.93;24.51;99330.84;5108265;28;20295;-38
2021/06/10 09:26:46;;;;;;;;;;;;;;;35.78;24.33;99324.41;5103863;28;19977;-38
2021/06/10 09:29:11;;;;;;;;;;;;;;;36.15;23.54;99323.47;5099971;28;19919;-39
2021/06/10 09:31:37;;;;;;;;;;;;;;;34.87;25.33;99323.91;5096478;28;20436;-39
2021/06/10 09:34:07;;;;;;;;;;;;;;;33.47;26.01;99325.41;5089972;28;19973;-38
2021/06/10 09:36:39;;;;;;;;;;;;;;;33.85;26.27;99323.69;5105631;28;20356;-40
2021/06/10 09:39:13;;;;;;;;;;;;;;;35.04;24.63;99328.81;5099077;28;19920;-40
2021/06/10 09:41:57;;;;;;;;;;;;;;;35.42;23.86;99326.06;5097033;28;19919;-39
2021/06/10 09:44:37;;;;;;;;;;;;;;;34.83;25.09;99323.06;5109827;28;19999;-39
2021/06/10 09:47:03;;;;;;;;;;;;;;;34.42;25.37;99326.50;5096653;28;19918;-38
2021/06/10 09:49:28;;;;;;;;;;;;;;;35.19;25.10;99323.50;5107323;28;19920;-38
2021/06/10 09:51:55;;;;;;;;;;;;;;;36.32;24.15;99319.22;5100997;28;19930;-38
2021/06/10 09:54:39;;;;;;;;;;;;;;;36.89;23.75;99320.69;5113612;28;20385;-38
2021/06/10 09:57:04;;;;;;;;;;;;;;;37.12;21.75;99321.13;5096588;28;19920;-37
2021/06/10 09:59:40;;;;;;;;;;;;;;;35.78;22.81;99324.41;5096657;28;19919;-39
2021/06/10 10:02:34;;;;;;;;;;;;;;;35.50;23.45;99322.19;5113133;28;19970;-38
2021/06/10 10:05:06;;;;;;;;;;;;;;;36.74;21.65;99314.31;5095312;28;20315;-39
2021/06/10 10:07:33;;;;;;;;;;;;;;;36.24;21.39;99316.84;5103987;28;20024;-39
2021/06/10 10:09:58;;;;;;;;;;;;;;;36.29;21.36;99314.50;5112991;28;19912;-39
2021/06/10 10:12:24;;;;;;;;;;;;;;;36.17;22.13;99310.06;5099961;28;20337;-38
2021/06/10 10:14:50;;;;;;;;;;;;;;;37.28;20.80;99306.09;5109547;28;19920;-39
2021/06/10 10:17:15;;;;;;;;;;;;;;;37.49;19.98;99306.16;5106928;28;19949;-38
2021/06/10 10:19:41;;;;;;;;;;;;;;;36.36;21.10;99313.72;5102611;27;20359;-38
2021/06/10 10:22:10;;;;;;;;;;;;;;;34.96;23.36;99299.53;5106456;28;20402;-38
2021/06/10 10:24:36;;;;;;;;;;;;;;;34.43;23.91;99299.69;5111833;28;19912;-37
2021/06/10 10:27:01;;;;;;;;;;;;;;;32.56;25.58;99298.41;5104974;28;19919;-37
2021/06/10 10:29:27;;;;;;;;;;;;;;;32.94;25.47;99300.41;5104302;28;19912;-42
2021/06/10 10:31:53;;;;;;;;;;;;;;;33.29;24.05;99294.75;5110606;28;19912;-38
2021/06/10 10:34:27;;;;;;;;;;;;;;;34.49;24.00;99294.63;5099047;28;19991;-38
2021/06/10 10:36:52;;;;;;;;;;;;;;;35.65;22.72;99292.66;5107994;28;20375;-39
2021/06/10 10:39:18;;;;;;;;;;;;;;;35.19;22.81;99288.34;5106932;28;19912;-38
2021/06/10 10:41:50;;;;;;;;;;;;;;;35.52;22.88;99283.88;5100268;28;20039;-39
2021/06/10 10:44:22;;;;;;;;;;;;;;;34.92;22.77;99279.34;5112992;28;19955;-39
2021/06/10 10:46:59;;;;;;;;;;;;;;;34.51;21.93;99282.00;5102982;28;19919;-40
2021/06/10 10:49:26;;;;;;;;;;;;;;;34.67;22.84;99276.28;5104767;28;19912;-38
2021/06/10 10:51:51;;;;;;;;;;;;;;;35.41;22.68;99271.91;5112084;28;20276;-38
2021/06/10 10:54:30;;;;;;;;;;;;;;;33.74;22.70;99273.06;5096974;28;19977;-38
2021/06/10 10:56:55;;;;;;;;;;;;;;;33.66;21.63;99274.91;5100620;28;19923;-39
2021/06/10 10:59:20;;;;;;;;;;;;;;;34.05;21.25;99266.41;5100093;28;19912;-38
2021/06/10 11:02:02;;;;;;;;;;;;;;;34.12;22.41;99267.66;5092722;28;20267;-37
2021/06/10 11:04:48;;;;;;;;;;;;;;;35.04;22.40;99270.00;5079946;28;20002;-39
2021/06/10 11:07:32;;;;;;;;;;;;;;;34.99;21.26;99265.59;5094662;28;20360;-39
2021/06/10 11:09:57;;;;;;;;;;;;;;;36.51;20.10;99257.19;5109788;28;20383;-40
2021/06/10 11:12:44;;;;;;;;;;;;;;;35.81;19.86;99267.50;5096496;28;19916;-40
2021/06/10 11:15:30;;;;;;;;;;;;;;;35.27;20.77;99258.00;5103419;28;20300;-40
2021/06/10 11:17:58;;;;;;;;;;;;;;;36.01;20.62;99257.75;5108791;28;19920;-38
2021/06/10 11:20:41;;;;;;;;;;;;;;;36.28;20.20;99240.09;5096003;28;19968;-40
2021/06/10 11:23:10;;;;;;;;;;;;;;;35.06;20.23;99242.75;5113503;28;19919;-40
2021/06/10 11:25:41;;;;;;;;;;;;;;;35.26;20.46;99242.56;5099652;28;19998;-38
2021/06/10 11:28:07;;;;;;;;;;;;;;;34.92;20.63;99237.09;5109359;28;20450;-39
2021/06/10 11:30:32;;;;;;;;;;;;;;;33.91;21.19;99240.56;5097538;28;19958;-39
2021/06/10 11:32:57;;;;;;;;;;;;;;;33.93;20.36;99228.00;5105277;28;20019;-40
2021/06/10 11:35:30;;;;;;;;;;;;;;;34.05;20.43;99229.75;5104673;28;20225;-40
2021/06/10 11:37:55;;;;;;;;;;;;;;;34.48;19.18;99235.81;5096503;28;20038;-38
2021/06/10 11:40:21;;;;;;;;;;;;;;;34.60;18.62;99237.53;5109113;28;20348;-38
2021/06/10 11:42:46;;;;;;;;;;;;;;;35.13;18.85;99242.00;5099304;28;19937;-39
2021/06/10 11:45:12;;;;;;;;;;;;;;;36.01;18.78;99234.81;5102422;28;19923;-38
2021/06/10 11:47:41;;;;;;;;;;;;;;;36.46;18.76;99229.88;5106309;28;20141;-38
2021/06/10 11:50:22;;;;;;;;;;;;;;;37.60;17.41;99233.97;5112233;28;20343;-39
2021/06/10 11:52:51;;;;;;;;;;;;;;;38.09;16.18;99229.53;5105435;28;20422;-38
2021/06/10 11:55:16;;;;;;;;;;;;;;;37.42;16.44;99224.91;5102707;28;19912;-38
2021/06/10 11:57:41;;;;;;;;;;;;;;;36.07;17.72;99232.47;5096199;28;19935;-38
2021/06/10 12:00:08;;;;;;;;;;;;;;;34.74;19.29;99229.41;5092532;28;19919;-37
2021/06/10 12:02:33;;;;;;;;;;;;;;;35.00;19.44;99220.19;5107238;28;20380;-39
2021/06/10 12:05:05;;;;;;;;;;;;;;;35.53;19.13;99221.84;5099421;28;19923;-37
2021/06/10 12:07:30;;;;;;;;;;;;;;;34.95;19.61;99222.53;5111176;28;19919;-37
2021/06/10 12:09:56;;;;;;;;;;;;;;;34.06;20.32;99223.03;5110462;28;19912;-37
2021/06/10 12:12:50;;;;;;;;;;;;;;;34.47;20.62;99217.66;5094589;28;20044;-37
2021/06/10 12:15:26;;;;;;;;;;;;;;;35.24;20.03;99215.28;5091318;28;19916;-37
2021/06/10 12:17:55;;;;;;;;;;;;;;;35.11;23.31;99233.31;5106772;28;20311;-37
2021/06/10 12:20:21;;;;;;;;;;;;;;;33.69;25.79;99220.97;5094614;28;20314;-37
2021/06/10 12:22:47;;;;;;;;;;;;;;;33.65;25.64;99215.38;5103458;28;19939;-37
2021/06/10 12:25:20;;;;;;;;;;;;;;;33.63;25.13;99216.91;5101124;28;19924;-38
2021/06/10 12:27:45;;;;;;;;;;;;;;;33.34;26.02;99205.44;5106008;28;19927;-38
2021/06/10 12:30:40;;;;;;;;;;;;;;;33.41;25.90;99202.78;5094575;28;19942;-39
2021/06/10 12:33:11;;;;;;;;;;;;;;;32.78;26.55;99209.56;5093005;28;19916;-38
2021/06/10 12:35:36;;;;;;;;;;;;;;;32.37;27.91;99214.69;5104424;28;19931;-38
2021/06/10 12:38:02;;;;;;;;;;;;;;;31.47;28.61;99211.91;5093090;28;19931;-38
2021/06/10 12:40:37;;;;;;;;;;;;;;;31.86;28.24;99209.25;5107384;28;19969;-39
2021/06/10 12:43:06;;;;;;;;;;;;;;;31.56;27.95;99210.53;5099965;28;19912;-38
2021/06/10 12:45:31;;;;;;;;;;;;;;;31.45;28.19;99197.69;5098455;28;19992;-38
2021/06/10 12:47:56;;;;;;;;;;;;;;;31.09;28.95;99197.63;5106298;28;19949;-38